createdAt,value
2018-02-27T00:01:02.746Z,98479.11
2018-02-27T00:03:33.308Z,98480.69
2018-02-27T00:06:04.542Z,98478.70
2018-02-27T00:08:34.367Z,98480.50
2018-02-27T00:11:06.388Z,98475.71
2018-02-27T00:13:36.261Z,98476.75
2018-02-27T00:16:06.553Z,98472.56
2018-02-27T00:18:36.432Z,98471.25
2018-02-27T00:21:11.283Z,98473.61
2018-02-27T00:23:42.294Z,98475.28
2018-02-27T00:26:12.112Z,98470.75
2018-02-27T00:28:41.922Z,98478.29
2018-02-27T00:31:11.481Z,98471.88
2018-02-27T00:33:41.290Z,98480.81
2018-02-27T00:36:11.089Z,98477.34
2018-02-27T00:38:40.898Z,98475.77
2018-02-27T00:41:10.728Z,98476.16
2018-02-27T00:43:40.522Z,98474.63
2018-02-27T00:46:10.324Z,98469.25
2018-02-27T00:48:40.128Z,98465.99
2018-02-27T00:51:09.934Z,98462.44
2018-02-27T00:53:39.746Z,98457.09
2018-02-27T00:56:09.590Z,98461.93
2018-02-27T00:58:39.637Z,98459.22
2018-02-27T01:01:09.516Z,98457.23
2018-02-27T01:03:39.328Z,98454.55
2018-02-27T01:06:09.146Z,98448.77
2018-02-27T01:08:39.231Z,98445.17
2018-02-27T01:11:09.045Z,98449.59
2018-02-27T01:13:38.903Z,98450.72
2018-02-27T01:16:08.721Z,98445.69
2018-02-27T01:18:38.820Z,98454.55
2018-02-27T01:21:08.479Z,98451.20
2018-02-27T01:23:39.244Z,98453.06
2018-02-27T01:26:10.889Z,98447.08
2018-02-27T01:28:40.588Z,98443.16
2018-02-27T01:31:10.496Z,98438.84
2018-02-27T01:33:40.191Z,98437.17
2018-02-27T01:36:10.229Z,98432.20
2018-02-27T01:38:40.070Z,98426.20
2018-02-27T01:41:10.001Z,98411.15
2018-02-27T01:43:39.789Z,98413.81
2018-02-27T01:46:09.622Z,98413.40
2018-02-27T01:48:39.470Z,98422.41
2018-02-27T01:51:15.589Z,98417.08
2018-02-27T01:53:45.849Z,98415.95
2018-02-27T01:56:15.659Z,98414.38
2018-02-27T01:58:45.488Z,98416.90
2018-02-27T02:01:15.302Z,98416.37
2018-02-27T02:03:45.112Z,98415.22
2018-02-27T02:06:14.938Z,98409.02
2018-02-27T02:08:44.771Z,98399.59
2018-02-27T02:11:14.582Z,98402.20
2018-02-27T02:13:44.401Z,98398.73
2018-02-27T02:16:14.212Z,98393.43
2018-02-27T02:18:44.042Z,98395.23
2018-02-27T02:21:13.891Z,98400.30
2018-02-27T02:23:43.707Z,98400.06
2018-02-27T02:26:13.532Z,98391.14
2018-02-27T02:28:43.558Z,98387.73
2018-02-27T02:31:13.352Z,98387.63
2018-02-27T02:33:43.181Z,98389.19
2018-02-27T02:36:13.105Z,98387.02
2018-02-27T02:38:42.915Z,98386.10
2018-02-27T02:41:12.733Z,98385.66
2018-02-27T02:43:42.313Z,98386.67
2018-02-27T02:46:12.361Z,98386.22
2018-02-27T02:48:42.697Z,98386.64
2018-02-27T02:51:12.593Z,98387.84
2018-02-27T02:53:42.403Z,98382.53
2018-02-27T02:56:12.268Z,98380.55
2018-02-27T02:58:42.080Z,98384.36
2018-02-27T03:01:11.879Z,98390.30
2018-02-27T03:03:41.699Z,98392.17
2018-02-27T03:06:11.510Z,98390.48
2018-02-27T03:08:41.357Z,98385.31
2018-02-27T03:11:11.175Z,98382.47
2018-02-27T03:13:40.998Z,98384.70
2018-02-27T03:16:10.802Z,98385.59
2018-02-27T03:18:40.370Z,98382.78
2018-02-27T03:21:10.207Z,98379.70
2018-02-27T03:23:40.021Z,98379.44
2018-02-27T03:26:09.841Z,98377.16
2018-02-27T03:28:39.654Z,98376.58
2018-02-27T03:31:09.467Z,98375.53
2018-02-27T03:33:39.303Z,98375.21
2018-02-27T03:36:09.146Z,98371.30
2018-02-27T03:38:38.944Z,98379.31
2018-02-27T03:41:08.949Z,98382.61
2018-02-27T03:43:38.733Z,98375.35
2018-02-27T03:46:08.542Z,98372.56
2018-02-27T03:48:38.571Z,98372.97
2018-02-27T03:51:08.399Z,98372.45
2018-02-27T03:53:38.194Z,98372.88
2018-02-27T03:56:08.000Z,98376.16
2018-02-27T03:58:37.811Z,98368.67
2018-02-27T04:01:07.621Z,98368.36
2018-02-27T04:03:37.433Z,98377.93
2018-02-27T04:06:07.248Z,98378.41
2018-02-27T04:08:37.053Z,98377.93
2018-02-27T04:11:06.865Z,98379.45
2018-02-27T04:13:36.494Z,98381.27
2018-02-27T04:16:06.311Z,98378.29
2018-02-27T04:18:36.123Z,98382.83
2018-02-27T04:21:06.003Z,98386.11
2018-02-27T04:23:35.827Z,98390.27
2018-02-27T04:26:05.636Z,98387.11
2018-02-27T04:28:35.452Z,98396.80
2018-02-27T04:31:05.282Z,98386.05
2018-02-27T04:33:35.097Z,98386.30
2018-02-27T04:36:04.897Z,98403.45
2018-02-27T04:38:34.723Z,98398.86
2018-02-27T04:41:04.538Z,98407.15
2018-02-27T04:43:34.360Z,98397.55
2018-02-27T04:46:04.162Z,98395.33
2018-02-27T04:48:33.974Z,98397.19
2018-02-27T04:51:03.936Z,98401.55
2018-02-27T04:53:33.752Z,98401.89
2018-02-27T04:56:03.579Z,98396.88
2018-02-27T04:58:33.569Z,98404.17
2018-02-27T05:01:03.399Z,98394.69
2018-02-27T05:03:33.233Z,98396.37
2018-02-27T05:06:03.037Z,98392.14
2018-02-27T05:08:32.893Z,98396.26
2018-02-27T05:11:02.688Z,98395.02
2018-02-27T05:13:32.507Z,98389.90
2018-02-27T05:16:02.088Z,98392.92
2018-02-27T05:18:32.026Z,98393.16
2018-02-27T05:21:01.837Z,98397.15
2018-02-27T05:23:34.011Z,98391.63
2018-02-27T05:26:03.953Z,98390.56
2018-02-27T05:28:33.806Z,98393.50
2018-02-27T05:31:04.250Z,98395.61
2018-02-27T05:33:34.102Z,98395.00
2018-02-27T05:36:03.926Z,98381.24
2018-02-27T05:38:33.738Z,98388.81
2018-02-27T05:41:12.572Z,98385.64
2018-02-27T05:43:43.741Z,98387.25
2018-02-27T05:46:14.390Z,98381.06
2018-02-27T05:48:44.612Z,98383.09
2018-02-27T05:51:16.357Z,98384.66
2018-02-27T05:53:49.801Z,98387.48
2018-02-27T05:56:19.612Z,98389.20
2018-02-27T05:58:49.253Z,98393.15
2018-02-27T06:01:19.193Z,98393.30
2018-02-27T06:03:49.092Z,98389.23
2018-02-27T06:06:19.085Z,98394.87
2018-02-27T06:08:48.985Z,98392.98
2018-02-27T06:11:18.851Z,98389.53
2018-02-27T06:13:49.908Z,98392.87
2018-02-27T06:16:20.306Z,98397.69
2018-02-27T06:18:50.170Z,98389.85
2018-02-27T06:21:20.360Z,98390.48
2018-02-27T06:23:50.050Z,98402.52
2018-02-27T06:26:20.008Z,98397.60
2018-02-27T06:28:49.906Z,98393.73
2018-02-27T06:31:19.805Z,98393.26
2018-02-27T06:33:50.183Z,98397.45
2018-02-27T06:40:48.538Z,98394.43
2018-02-27T06:43:33.662Z,98396.15
2018-02-27T06:46:07.125Z,98397.66
2018-02-27T06:48:37.483Z,98394.91
2018-02-27T06:51:07.802Z,98397.43
2018-02-27T06:53:37.690Z,98401.52
2018-02-27T06:56:08.011Z,98399.84
2018-02-27T06:58:38.216Z,98398.57
2018-02-27T07:01:08.298Z,98401.98
2018-02-27T07:03:38.230Z,98398.32
2018-02-27T07:06:08.288Z,98396.84
2018-02-27T07:08:38.440Z,98396.79
2018-02-27T07:11:08.287Z,98404.64
2018-02-27T07:13:38.214Z,98390.42
2018-02-27T07:16:08.041Z,98398.89
2018-02-27T07:18:37.958Z,98393.52
2018-02-27T07:21:07.774Z,98392.44
2018-02-27T07:23:37.589Z,98395.91
2018-02-27T07:26:07.510Z,98394.27
2018-02-27T07:28:37.419Z,98389.75
2018-02-27T07:31:07.290Z,98392.06
2018-02-27T07:33:36.878Z,98400.25
2018-02-27T07:36:06.703Z,98388.64
2018-02-27T07:38:36.530Z,98392.80
2018-02-27T07:41:05.860Z,98399.94
2018-02-27T07:43:35.716Z,98394.84
2018-02-27T07:46:05.546Z,98396.08
2018-02-27T07:48:35.507Z,98397.14
2018-02-27T07:51:05.479Z,98394.38
2018-02-27T07:53:35.415Z,98394.88
2018-02-27T07:56:05.437Z,98391.87
2018-02-27T07:58:35.460Z,98397.91
2018-02-27T08:01:05.336Z,98388.16
2018-02-27T08:03:35.206Z,98390.13
2018-02-27T08:06:05.317Z,98390.13
2018-02-27T08:08:35.342Z,98384.66
2018-02-27T08:11:05.191Z,98385.37
2018-02-27T08:13:35.121Z,98382.41
2018-02-27T08:16:05.005Z,98383.39
2018-02-27T08:18:34.932Z,98378.34
2018-02-27T08:21:04.781Z,98373.68
2018-02-27T08:23:34.368Z,98369.89
2018-02-27T08:26:04.212Z,98373.34
2018-02-27T08:28:34.129Z,98375.13
2018-02-27T08:31:04.256Z,98374.94
2018-02-27T08:33:34.325Z,98374.30
2018-02-27T08:36:04.337Z,98375.91
2018-02-27T08:38:34.312Z,98372.73
2018-02-27T08:41:04.316Z,98372.42
2018-02-27T08:43:34.287Z,98372.98
2018-02-27T08:46:04.285Z,98376.87
2018-02-27T08:48:34.164Z,98370.41
2018-02-27T08:51:03.987Z,98373.61
2018-02-27T08:53:33.807Z,98379.52
2018-02-27T08:56:03.686Z,98377.37
2018-02-27T08:58:33.664Z,98375.44
2018-02-27T09:01:03.515Z,98374.20
2018-02-27T09:03:33.480Z,98368.71
2018-02-27T09:06:03.312Z,98370.67
2018-02-27T09:08:34.107Z,98368.53
2018-02-27T09:11:03.974Z,98363.61
2018-02-27T09:13:33.832Z,98365.34
2018-02-27T09:16:03.671Z,98358.77
2018-02-27T09:18:33.535Z,98361.67
2018-02-27T09:21:03.357Z,98359.83
2018-02-27T09:23:33.233Z,98365.16
2018-02-27T09:26:03.052Z,98358.37
2018-02-27T09:28:32.870Z,98355.84
2018-02-27T09:31:02.825Z,98351.89
2018-02-27T09:33:32.667Z,98351.06
2018-02-27T09:36:02.658Z,98343.64
2018-02-27T09:38:32.575Z,98344.81
2018-02-27T09:41:02.586Z,98346.02
2018-02-27T09:43:32.491Z,98337.13
2018-02-27T09:46:02.360Z,98339.19
2018-02-27T09:48:32.456Z,98345.77
2018-02-27T09:51:02.321Z,98343.45
2018-02-27T09:53:32.166Z,98339.56
2018-02-27T09:56:01.984Z,98347.09
2018-02-27T09:58:31.857Z,98345.73
2018-02-27T10:01:01.673Z,98350.45
2018-02-27T10:03:31.576Z,98349.50
2018-02-27T10:06:01.152Z,98346.52
2018-02-27T10:08:31.008Z,98345.91
2018-02-27T10:11:00.976Z,98351.62
2018-02-27T10:13:31.087Z,98349.63
2018-02-27T10:16:01.395Z,98350.36
2018-02-27T10:18:31.297Z,98350.58
2018-02-27T10:21:01.397Z,98347.07
2018-02-27T10:23:31.275Z,98342.96
2018-02-27T10:26:01.102Z,98339.12
2018-02-27T10:28:31.012Z,98338.80
2018-02-27T10:31:01.001Z,98339.96
2018-02-27T10:33:31.038Z,98342.59
2018-02-27T10:36:00.994Z,98340.20
2018-02-27T10:38:31.243Z,98338.66
2018-02-27T10:41:01.233Z,98339.68
2018-02-27T10:43:31.185Z,98337.11
2018-02-27T10:46:01.085Z,98335.96
2018-02-27T10:48:30.943Z,98342.98
2018-02-27T10:51:00.963Z,98337.43
2018-02-27T10:53:33.152Z,98336.81
2018-02-27T10:56:03.211Z,98342.10
2018-02-27T10:58:33.267Z,98343.23
2018-02-27T11:01:02.928Z,98339.06
2018-02-27T11:03:33.010Z,98343.09
2018-02-27T11:06:03.304Z,98338.11
2018-02-27T11:08:33.678Z,98344.44
2018-02-27T11:11:03.745Z,98337.75
2018-02-27T11:13:33.619Z,98339.97
2018-02-27T11:16:04.317Z,98332.20
2018-02-27T11:18:34.724Z,98335.06
2018-02-27T11:21:04.794Z,98335.62
2018-02-27T11:23:35.554Z,98337.44
2018-02-27T11:26:05.948Z,98334.76
2018-02-27T11:28:35.883Z,98329.00
2018-02-27T11:31:05.831Z,98333.63
2018-02-27T11:33:35.343Z,98333.09
2018-02-27T11:36:04.906Z,98326.02
2018-02-27T11:38:35.109Z,98326.94
2018-02-27T11:41:04.982Z,98324.58
2018-02-27T11:43:34.821Z,98325.95
2018-02-27T11:46:04.696Z,98328.66
2018-02-27T11:48:34.620Z,98334.52
2018-02-27T11:51:04.145Z,98327.47
2018-02-27T11:53:33.966Z,98325.53
2018-02-27T11:56:03.937Z,98328.15
2018-02-27T11:58:37.541Z,98311.88
2018-02-27T12:01:07.418Z,98316.45
2018-02-27T12:03:37.288Z,98317.22
2018-02-27T12:06:07.822Z,98318.23
2018-02-27T12:08:37.676Z,98319.25
2018-02-27T12:11:07.546Z,98320.52
2018-02-27T12:13:37.401Z,98318.76
2018-02-27T12:16:07.432Z,98314.13
2018-02-27T12:18:37.422Z,98316.98
2018-02-27T12:21:07.973Z,98314.53
2018-02-27T12:23:38.718Z,98317.17
2018-02-27T12:26:09.610Z,98321.60
2018-02-27T12:28:39.538Z,98318.16
2018-02-27T12:31:11.548Z,98317.00
2018-02-27T12:33:41.925Z,98319.64
2018-02-27T12:38:46.771Z,98311.36
2018-02-27T12:41:16.921Z,98311.88
2018-02-27T12:43:46.899Z,98317.80
2018-02-27T12:46:16.854Z,98310.86
2018-02-27T12:48:46.876Z,98322.55
2018-02-27T12:51:17.553Z,98319.05
2018-02-27T12:53:47.440Z,98321.80
2018-02-27T12:56:17.798Z,98322.69
2018-02-27T12:58:47.872Z,98322.50
2018-02-27T13:01:17.895Z,98326.80
2018-02-27T13:03:47.873Z,98327.13
2018-02-27T13:06:17.711Z,98329.91
2018-02-27T13:08:47.690Z,98331.48
2018-02-27T13:11:17.636Z,98320.81
2018-02-27T13:13:47.789Z,98324.34
2018-02-27T13:16:18.334Z,98319.02
2018-02-27T13:18:48.291Z,98324.84
2018-02-27T13:21:18.123Z,98319.08
2018-02-27T13:23:48.062Z,98326.15
2018-02-27T13:26:18.065Z,98323.21
2018-02-27T13:28:52.418Z,98318.10
2018-02-27T13:31:22.822Z,98320.28
2018-02-27T13:33:53.519Z,98318.75
2018-02-27T13:36:23.905Z,98321.05
2018-02-27T13:38:54.782Z,98319.07
2018-02-27T13:41:24.688Z,98327.62
2018-02-27T13:43:55.038Z,98325.39
2018-02-27T13:46:26.423Z,98325.97
2018-02-27T13:49:03.999Z,98317.52
2018-02-27T13:51:26.666Z,98324.59
2018-02-27T13:53:57.678Z,98323.83
2018-02-27T13:56:27.618Z,98322.20
2018-02-27T13:58:57.574Z,98331.18
2018-02-27T14:01:27.501Z,98330.66
2018-02-27T14:03:57.884Z,98323.36
2018-02-27T14:06:27.877Z,98334.12
2018-02-27T14:08:57.794Z,98332.98
2018-02-27T14:11:28.062Z,98334.45
2018-02-27T14:13:58.426Z,98332.50
2018-02-27T14:16:28.602Z,98334.13
2018-02-27T14:18:58.554Z,98336.48
2018-02-27T14:21:28.295Z,98334.76
2018-02-27T14:23:59.136Z,98336.40
2018-02-27T14:26:29.145Z,98329.50
2018-02-27T14:28:59.032Z,98334.36
2018-02-27T14:31:28.773Z,98330.49
2018-02-27T14:33:58.763Z,98331.05
2018-02-27T14:36:28.433Z,98335.08
2018-02-27T14:38:58.501Z,98334.23
2018-02-27T14:41:28.458Z,98332.95
2018-02-27T14:43:58.575Z,98335.23
2018-02-27T14:46:28.457Z,98331.58
2018-02-27T14:48:58.393Z,98331.77
2018-02-27T14:51:28.339Z,98331.81
2018-02-27T14:53:58.379Z,98331.34
2018-02-27T14:56:28.688Z,98330.28
2018-02-27T14:58:58.631Z,98334.19
2018-02-27T15:01:29.016Z,98338.81
2018-02-27T15:03:58.894Z,98341.16
2018-02-27T15:06:30.083Z,98336.88
2018-02-27T15:09:00.046Z,98340.09
2018-02-27T15:11:31.680Z,98346.37
2018-02-27T15:14:01.570Z,98343.03
2018-02-27T15:16:34.483Z,98341.17
2018-02-27T15:19:04.317Z,98341.06
2018-02-27T15:21:35.686Z,98345.83
2018-02-27T15:24:05.575Z,98346.04
2018-02-27T15:26:38.548Z,98342.69
2018-02-27T15:29:09.254Z,98351.19
2018-02-27T15:31:40.107Z,98347.83
2018-02-27T15:34:10.069Z,98344.98
2018-02-27T15:36:40.285Z,98345.59
2018-02-27T15:39:17.250Z,98350.14
2018-02-27T15:41:47.141Z,98348.56
2018-02-27T15:44:17.022Z,98354.25
2018-02-27T15:46:47.486Z,98358.46
2018-02-27T15:49:17.313Z,98354.93
2018-02-27T15:51:48.376Z,98363.06
2018-02-27T15:54:18.307Z,98359.53
2018-02-27T15:56:48.158Z,98358.36
2018-02-27T15:59:18.969Z,98367.55
2018-02-27T16:01:52.806Z,98370.02
2018-02-27T16:04:30.496Z,98366.84
2018-02-27T16:07:02.097Z,98371.20
2018-02-27T16:09:32.844Z,98370.66
2018-02-27T16:12:02.828Z,98369.67
2018-02-27T16:14:32.774Z,98369.13
2018-02-27T16:17:02.719Z,98373.19
2018-02-27T16:19:32.574Z,98376.20
2018-02-27T16:22:02.396Z,98378.58
2018-02-27T16:24:32.243Z,98378.59
2018-02-27T16:27:02.053Z,98377.04
2018-02-27T16:29:32.050Z,98381.81
2018-02-27T16:32:01.864Z,98378.78
2018-02-27T16:34:31.660Z,98379.81
2018-02-27T16:37:01.498Z,98383.13
2018-02-27T16:39:31.378Z,98386.08
2018-02-27T16:42:01.170Z,98390.56
2018-02-27T16:44:31.007Z,98391.33
2018-02-27T16:47:00.825Z,98397.28
2018-02-27T16:49:30.617Z,98394.95
2018-02-27T16:52:01.057Z,98405.89
2018-02-27T16:54:30.911Z,98405.42
2018-02-27T16:57:00.741Z,98400.12
2018-02-27T16:59:34.474Z,98406.66
2018-02-27T17:02:04.277Z,98405.16
2018-02-27T17:04:34.263Z,98404.69
2018-02-27T17:07:04.165Z,98408.86
2018-02-27T17:09:34.245Z,98408.98
2018-02-27T17:12:04.084Z,98411.29
2018-02-27T17:14:34.045Z,98411.29
2018-02-27T17:17:03.914Z,98415.78
2018-02-27T17:19:33.859Z,98418.75
2018-02-27T17:22:04.556Z,98420.28
2018-02-27T17:24:34.444Z,98414.44
2018-02-27T17:27:04.270Z,98425.34
2018-02-27T17:29:34.146Z,98422.52
2018-02-27T17:32:04.013Z,98416.55
2018-02-27T17:34:33.871Z,98418.77
2018-02-27T17:37:03.877Z,98418.20
2018-02-27T17:39:33.715Z,98417.02
2018-02-27T17:42:03.535Z,98421.39
2018-02-27T17:44:33.716Z,98419.73
2018-02-27T17:47:03.530Z,98422.25
2018-02-27T17:49:39.412Z,98420.34
2018-02-27T17:52:10.313Z,98422.67
2018-02-27T17:54:40.129Z,98426.50
2018-02-27T17:57:10.091Z,98423.34
2018-02-27T17:59:40.046Z,98422.67
2018-02-27T18:02:13.732Z,98420.47
2018-02-27T18:04:43.408Z,98424.89
2018-02-27T18:07:13.248Z,98415.30
2018-02-27T18:09:43.065Z,98423.65
2018-02-27T18:12:12.882Z,98418.89
2018-02-27T18:14:42.720Z,98419.88
2018-02-27T18:17:12.546Z,98419.58
2018-02-27T18:19:44.420Z,98419.80
2018-02-27T18:22:15.336Z,98416.56
2018-02-27T18:24:45.159Z,98420.97
2018-02-27T18:27:15.015Z,98420.69
2018-02-27T18:29:45.895Z,98418.64
2018-02-27T18:32:15.905Z,98419.73
2018-02-27T18:34:45.911Z,98419.40
2018-02-27T18:37:15.734Z,98415.45
2018-02-27T18:39:45.683Z,98422.48
2018-02-27T18:42:16.244Z,98418.64
2018-02-27T18:44:46.157Z,98421.59
2018-02-27T18:47:16.876Z,98424.46
2018-02-27T18:49:46.894Z,98427.04
2018-02-27T18:52:16.885Z,98430.34
2018-02-27T18:54:46.843Z,98425.84
2018-02-27T18:57:17.188Z,98432.25
2018-02-27T18:59:51.779Z,98433.66
2018-02-27T19:02:24.976Z,98427.86
2018-02-27T19:05:00.250Z,98426.22
2018-02-27T19:07:31.127Z,98427.29
2018-02-27T19:10:01.029Z,98430.27
2018-02-27T19:12:30.918Z,98427.46
2018-02-27T19:15:01.094Z,98435.70
2018-02-27T19:17:31.601Z,98429.22
2018-02-27T19:20:01.689Z,98428.19
2018-02-27T19:22:31.565Z,98436.64
2018-02-27T19:25:01.405Z,98433.76
2018-02-27T19:27:31.540Z,98429.70
2018-02-27T19:30:01.788Z,98431.77
2018-02-27T19:32:32.080Z,98434.94
2018-02-27T19:35:03.117Z,98437.98
2018-02-27T19:37:33.411Z,98440.57
2018-02-27T19:40:03.702Z,98439.62
2018-02-27T19:42:33.786Z,98440.51
2018-02-27T19:45:03.988Z,98441.89
2018-02-27T19:47:34.518Z,98436.52
2018-02-27T19:50:04.671Z,98433.35
2018-02-27T19:52:34.837Z,98439.86
2018-02-27T19:55:05.067Z,98443.52
2018-02-27T19:57:35.137Z,98430.98
2018-02-27T20:00:05.615Z,98436.55
2018-02-27T20:02:35.894Z,98441.61
2018-02-27T20:05:05.947Z,98439.64
2018-02-27T20:07:36.021Z,98441.36
2018-02-27T20:10:06.028Z,98445.00
2018-02-27T20:12:36.353Z,98448.32
2018-02-27T20:15:06.454Z,98448.60
2018-02-27T20:17:42.030Z,98452.73
2018-02-27T20:20:12.006Z,98457.47
2018-02-27T20:22:47.261Z,98456.88
2018-02-27T20:25:17.590Z,98453.42
2018-02-27T20:27:47.538Z,98456.91
2018-02-27T20:30:17.667Z,98463.28
2018-02-27T20:32:48.171Z,98465.36
2018-02-27T20:35:18.360Z,98465.30
2018-02-27T20:37:54.292Z,98467.62
2018-02-27T20:40:24.282Z,98478.51
2018-02-27T20:42:54.161Z,98472.08
2018-02-27T20:45:24.206Z,98469.97
2018-02-27T20:47:54.561Z,98472.98
2018-02-27T20:50:28.358Z,98475.77
2018-02-27T20:52:58.341Z,98477.13
2018-02-27T20:55:28.379Z,98477.85
2018-02-27T20:57:58.548Z,98479.28
2018-02-27T21:00:28.509Z,98473.82
2018-02-27T21:02:58.890Z,98471.95
2018-02-27T21:05:28.913Z,98468.88
2018-02-27T21:07:59.420Z,98470.55
2018-02-27T21:10:29.340Z,98469.81
2018-02-27T21:12:59.264Z,98474.34
2018-02-27T21:15:29.097Z,98474.14
2018-02-27T21:17:59.039Z,98475.26
2018-02-27T21:20:33.400Z,98480.11
2018-02-27T21:23:03.521Z,98484.28
2018-02-27T21:25:33.843Z,98477.88
2018-02-27T21:28:08.709Z,98482.00
2018-02-27T21:30:38.625Z,98485.86
2018-02-27T21:33:08.716Z,98490.41
2018-02-27T21:35:38.781Z,98490.35
2018-02-27T21:38:08.663Z,98487.16
2018-02-27T21:40:39.902Z,98489.69
2018-02-27T21:43:10.241Z,98487.03
2018-02-27T21:45:40.418Z,98488.92
2018-02-27T21:48:11.752Z,98489.45
2018-02-27T21:50:41.960Z,98487.20
2018-02-27T21:53:13.132Z,98491.11
2018-02-27T21:55:43.330Z,98485.10
2018-02-27T21:58:17.468Z,98485.48
2018-02-27T22:00:48.399Z,98490.29
2018-02-27T22:03:18.233Z,98493.03
2018-02-27T22:05:49.016Z,98493.34
2018-02-27T22:08:19.655Z,98497.02
2018-02-27T22:10:50.018Z,98500.03
2018-02-27T22:13:20.201Z,98500.60
2018-02-27T22:15:54.131Z,98497.94
2018-02-27T22:18:24.115Z,98501.27
2018-02-27T22:20:54.082Z,98505.34
2018-02-27T22:23:24.035Z,98504.45
2018-02-27T22:25:53.868Z,98503.47
2018-02-27T22:28:24.562Z,98509.34
2018-02-27T22:30:54.643Z,98514.81
2018-02-27T22:33:24.933Z,98515.29
2018-02-27T22:35:54.770Z,98519.56
2018-02-27T22:38:24.750Z,98519.42
2018-02-27T22:40:54.672Z,98524.13
2018-02-27T22:43:24.502Z,98525.79
2018-02-27T22:45:54.419Z,98520.23
2018-02-27T22:48:24.288Z,98521.85
2018-02-27T22:50:54.110Z,98517.57
2018-02-27T22:53:23.940Z,98523.88
2018-02-27T22:55:53.860Z,98527.48
2018-02-27T22:58:23.944Z,98523.08
2018-02-27T23:00:53.777Z,98523.77
2018-02-27T23:03:23.057Z,98523.84
2018-02-27T23:05:52.875Z,98527.72
2018-02-27T23:08:22.715Z,98529.23
2018-02-27T23:10:52.540Z,98528.40
2018-02-27T23:13:22.661Z,98532.47
2018-02-27T23:15:52.209Z,98531.43
2018-02-27T23:18:22.055Z,98536.32
2018-02-27T23:20:51.857Z,98527.25
2018-02-27T23:23:21.660Z,98531.79
2018-02-27T23:26:01.268Z,98530.59
2018-02-27T23:28:35.438Z,98532.16
2018-02-27T23:31:05.534Z,98528.41
2018-02-27T23:33:36.777Z,98529.45
2018-02-27T23:36:06.882Z,98524.05
2018-02-27T23:38:36.877Z,98526.58
2018-02-27T23:41:07.444Z,98534.73
2018-02-27T23:43:38.174Z,98528.91
2018-02-27T23:46:08.403Z,98531.60
2018-02-27T23:48:38.331Z,98534.88
2018-02-27T23:51:08.640Z,98534.93
2018-02-27T23:53:38.872Z,98534.30
2018-02-27T23:56:08.671Z,98536.38
2018-02-27T23:58:39.188Z,98539.40
